Impacts TAF Board
For situational awareness. Not to be used for flight planning purposes.
IDs:

KINW - Winslow/Lindberg Rgn, AZ, US

Issued at 1204 UTC 30 Oct 2020
Updated at 1605 UTC 30 Oct 2020
Potential Impact None Slight Moderate High
Time1556Z 30/17Z 30/18Z 30/19Z 30/20Z 30/21Z 30/22Z 30/23Z 31/00Z 31/01Z 31/02Z 31/03Z 31/04Z 31/05Z>>
Type OBS PRVL PRVL PRVL PRVL PRVL PRVL PRVL PRVL PRVL PRVL PRVL PRVL PRVL
VIS 10 >6 >6 >6 >6 >6 >6 >6 >6 >6 >6 >6 >6 >6
CIG -- -- -- -- -- -- -- -- -- -- -- -- -- --
Cover CLR FEW FEW FEW FEW FEW FEW FEW FEW FEW FEW FEW FEW FEW
FltCat VFR VFR VFR VFR VFR VFR VFR VFR VFR VFR VFR VFR VFR VFR
WX -- -- -- -- -- -- -- -- -- -- -- -- -- --
WDir 100 VRB VRB VRB VRB VRB VRB VRB VRB VRB VRB VRB VRB VRB
WSpd 5 4 4 4 4 4 4 4 4 4 4 4 4 4
WGst -- -- -- -- -- -- -- -- -- -- -- -- -- --
Raw TAF
KINW 301204Z 3012/3112 VRB04KT P6SM FEW200
  TEMPO 3012/3015 5SM HZ


Raw METAR
KINW 301556Z AUTO 10005KT 10SM CLR 06/00 A3030 RMK AO2 SLP252 T00560000
KINW 301456Z AUTO 00000KT 8SM CLR 02/M02 A3028 RMK AO2 SLP250 T00221017 53007
KINW 301356Z AUTO 00000KT 10SM CLR M02/M05 A3027 RMK AO2 SLP251 T10221050

METAR Board
Radar Display
Forecast Discussion
For situational awareness. Not to be used for flight planning purposes.